createdAt,value
2023-08-31T00:00:47.633Z,4.00
2023-08-31T00:03:15.431Z,3.13
2023-08-31T00:05:43.804Z,3.45
2023-08-31T00:08:12.510Z,3.67
2023-08-31T00:10:39.084Z,3.20
2023-08-31T00:13:09.764Z,3.40
2023-08-31T00:15:37.424Z,3.60
2023-08-31T00:18:07.546Z,3.30
2023-08-31T00:20:34.706Z,3.33
2023-08-31T00:23:01.932Z,3.33
2023-08-31T00:25:29.328Z,3.42
2023-08-31T00:27:57.604Z,3.85
2023-08-31T00:30:29.395Z,3.67
2023-08-31T00:32:56.560Z,4.25
2023-08-31T00:35:23.291Z,3.88
2023-08-31T00:37:50.643Z,3.80
2023-08-31T00:40:17.235Z,3.45
2023-08-31T00:42:43.735Z,4.05
2023-08-31T00:45:11.435Z,4.18
2023-08-31T00:47:37.922Z,4.40
2023-08-31T00:50:04.720Z,4.82
2023-08-31T00:52:31.224Z,5.30
2023-08-31T00:54:57.693Z,4.97
2023-08-31T00:57:27.497Z,5.10
2023-08-31T00:59:56.142Z,5.75
2023-08-31T01:02:51.924Z,5.35
2023-08-31T01:05:30.685Z,5.45
2023-08-31T01:08:16.017Z,5.20
2023-08-31T01:10:59.370Z,5.20
2023-08-31T01:13:26.723Z,5.28
2023-08-31T01:16:01.098Z,4.68
2023-08-31T01:18:32.614Z,4.20
2023-08-31T01:21:12.914Z,3.88
2023-08-31T01:23:52.461Z,3.05
2023-08-31T01:26:19.122Z,2.88
2023-08-31T01:28:46.504Z,3.53
2023-08-31T01:31:13.068Z,3.30
2023-08-31T01:33:40.263Z,2.60
2023-08-31T01:36:13.713Z,2.80
2023-08-31T01:38:45.881Z,2.35
2023-08-31T01:41:17.236Z,2.28
2023-08-31T01:43:44.828Z,2.20
2023-08-31T01:46:11.770Z,2.17
2023-08-31T01:48:43.861Z,2.08
2023-08-31T01:51:10.892Z,2.25
2023-08-31T01:53:37.348Z,2.40
2023-08-31T01:56:05.964Z,2.05
2023-08-31T01:58:32.514Z,2.03
2023-08-31T02:00:58.978Z,1.80
2023-08-31T02:03:25.537Z,1.90
2023-08-31T02:05:52.004Z,1.80
2023-08-31T02:08:19.084Z,2.00
2023-08-31T02:10:49.140Z,1.98
2023-08-31T02:13:22.310Z,1.80
2023-08-31T02:15:52.817Z,1.77
2023-08-31T02:18:20.215Z,1.75
2023-08-31T02:20:47.078Z,2.22
2023-08-31T02:23:14.463Z,2.10
2023-08-31T02:25:41.136Z,2.00
2023-08-31T02:28:08.085Z,1.90
2023-08-31T02:30:37.283Z,1.88
2023-08-31T02:33:05.968Z,2.00
2023-08-31T02:35:32.626Z,1.80
2023-08-31T02:37:59.481Z,2.40
2023-08-31T02:40:26.019Z,1.98
2023-08-31T02:42:53.553Z,2.05
2023-08-31T02:45:21.643Z,2.40
2023-08-31T02:47:50.746Z,2.08
2023-08-31T02:50:17.701Z,1.95
2023-08-31T02:52:44.215Z,2.25
2023-08-31T02:55:11.509Z,2.17
2023-08-31T02:57:38.012Z,2.05
2023-08-31T03:00:07.624Z,2.50
2023-08-31T03:02:35.280Z,2.13
2023-08-31T03:05:04.321Z,2.53
2023-08-31T03:07:30.817Z,2.22
2023-08-31T03:09:57.280Z,2.22
2023-08-31T03:12:23.738Z,2.45
2023-08-31T03:14:50.174Z,2.53
2023-08-31T03:17:18.227Z,2.92
2023-08-31T03:19:44.761Z,2.55
2023-08-31T03:22:12.309Z,2.17
2023-08-31T03:24:38.798Z,2.58
2023-08-31T03:27:05.513Z,2.47
2023-08-31T03:29:33.132Z,2.83
2023-08-31T03:32:01.163Z,2.50
2023-08-31T03:34:31.811Z,2.80
2023-08-31T03:36:59.660Z,3.17
2023-08-31T03:39:26.851Z,2.80
2023-08-31T03:41:53.338Z,2.95
2023-08-31T03:44:21.657Z,2.72
2023-08-31T03:46:50.125Z,2.78
2023-08-31T03:49:16.790Z,3.10
2023-08-31T03:51:44.523Z,3.03
2023-08-31T03:54:13.833Z,3.28
2023-08-31T03:56:40.450Z,3.25
2023-08-31T03:59:06.920Z,3.50
2023-08-31T04:01:33.535Z,3.72
2023-08-31T04:04:00.117Z,3.30
2023-08-31T04:06:26.623Z,3.60
2023-08-31T04:08:53.081Z,4.18
2023-08-31T04:11:19.531Z,4.10
2023-08-31T04:13:45.998Z,4.13
2023-08-31T04:16:12.512Z,3.58
2023-08-31T04:18:39.080Z,4.13
2023-08-31T04:21:06.935Z,4.20
2023-08-31T04:23:33.701Z,4.40
2023-08-31T04:26:00.481Z,4.63
2023-08-31T04:28:27.162Z,4.40
2023-08-31T04:30:53.638Z,4.05
2023-08-31T04:33:20.118Z,4.20
2023-08-31T04:35:46.605Z,4.05
2023-08-31T04:38:13.062Z,4.78
2023-08-31T04:40:39.531Z,4.22
2023-08-31T04:43:06.031Z,4.80
2023-08-31T04:45:32.514Z,4.95
2023-08-31T04:47:59.660Z,5.18
2023-08-31T04:50:26.738Z,5.25
2023-08-31T04:52:53.223Z,5.35
2023-08-31T04:55:22.662Z,4.40
2023-08-31T04:57:49.111Z,5.45
2023-08-31T05:00:16.025Z,5.45
2023-08-31T05:02:42.582Z,5.15
2023-08-31T05:05:09.391Z,5.03
2023-08-31T05:07:35.993Z,6.05
2023-08-31T05:10:02.618Z,5.78
2023-08-31T05:12:29.088Z,6.35
2023-08-31T05:14:55.613Z,5.70
2023-08-31T05:17:22.743Z,5.25
2023-08-31T05:19:49.320Z,5.70
2023-08-31T05:22:15.770Z,6.25
2023-08-31T05:24:42.268Z,5.88
2023-08-31T05:27:09.002Z,6.32
2023-08-31T05:29:35.476Z,6.55
2023-08-31T05:32:01.929Z,6.18
2023-08-31T05:34:28.408Z,6.32
2023-08-31T05:36:54.986Z,6.80
2023-08-31T05:39:21.494Z,6.97
2023-08-31T05:41:47.970Z,6.15
2023-08-31T05:44:14.467Z,7.00
2023-08-31T05:46:42.199Z,7.75
2023-08-31T05:49:09.032Z,7.22
2023-08-31T05:51:36.029Z,6.82
2023-08-31T05:54:02.675Z,7.03
2023-08-31T05:56:29.174Z,7.32
2023-08-31T05:58:56.924Z,8.02
2023-08-31T06:01:23.833Z,7.43
2023-08-31T06:03:50.355Z,7.53
2023-08-31T06:06:16.839Z,7.35
2023-08-31T06:08:44.311Z,7.00
2023-08-31T06:11:11.134Z,6.88
2023-08-31T06:13:38.879Z,8.02
2023-08-31T06:16:05.445Z,8.40
2023-08-31T06:18:31.926Z,8.73
2023-08-31T06:20:58.902Z,8.32
2023-08-31T06:23:25.394Z,7.97
2023-08-31T06:25:51.919Z,8.32
2023-08-31T06:28:18.375Z,8.65
2023-08-31T06:30:48.493Z,8.88
2023-08-31T06:33:16.199Z,9.13
2023-08-31T06:35:42.974Z,8.63
2023-08-31T06:38:09.429Z,8.10
2023-08-31T06:40:35.904Z,7.93
2023-08-31T06:43:02.718Z,8.25
2023-08-31T06:45:29.164Z,8.20
2023-08-31T06:47:55.617Z,7.13
2023-08-31T06:50:22.272Z,6.97
2023-08-31T06:52:48.865Z,7.18
2023-08-31T06:55:15.369Z,7.45
2023-08-31T06:57:42.914Z,7.38
2023-08-31T07:00:10.341Z,7.10
2023-08-31T07:02:40.447Z,7.25
2023-08-31T07:05:07.466Z,8.15
2023-08-31T07:07:33.919Z,7.82
2023-08-31T07:10:00.829Z,7.32
2023-08-31T07:12:27.280Z,6.53
2023-08-31T07:14:53.768Z,6.65
2023-08-31T07:17:20.450Z,6.57
2023-08-31T07:19:47.705Z,6.03
2023-08-31T07:22:14.220Z,5.93
2023-08-31T07:24:40.690Z,5.20
2023-08-31T07:27:07.313Z,4.88
2023-08-31T07:29:34.292Z,4.40
2023-08-31T07:32:00.844Z,5.13
2023-08-31T07:34:28.001Z,4.65
2023-08-31T07:36:54.516Z,6.03
2023-08-31T07:39:20.986Z,5.57
2023-08-31T07:41:47.474Z,4.97
2023-08-31T07:44:13.941Z,6.85
2023-08-31T07:46:40.441Z,6.15
2023-08-31T07:49:07.447Z,5.50
2023-08-31T07:51:34.319Z,5.50
2023-08-31T07:54:01.255Z,4.75
2023-08-31T07:56:27.885Z,5.00
2023-08-31T07:58:54.723Z,4.57
2023-08-31T08:01:21.327Z,4.45
2023-08-31T08:03:47.861Z,4.15
2023-08-31T08:06:15.097Z,3.03
2023-08-31T08:08:42.166Z,2.97
2023-08-31T08:11:08.644Z,3.25
2023-08-31T08:13:35.110Z,2.63
2023-08-31T08:16:02.249Z,4.00
2023-08-31T08:18:28.696Z,3.45
2023-08-31T08:20:55.196Z,3.22
2023-08-31T08:23:23.282Z,2.90
2023-08-31T08:25:49.861Z,3.20
2023-08-31T08:28:16.365Z,3.10
2023-08-31T08:30:42.854Z,3.00
2023-08-31T08:33:10.110Z,2.30
2023-08-31T08:35:38.595Z,2.83
2023-08-31T08:38:05.695Z,3.15
2023-08-31T08:40:33.334Z,2.80
2023-08-31T08:43:01.581Z,2.13
2023-08-31T08:45:37.249Z,2.53
2023-08-31T08:48:06.936Z,2.40
2023-08-31T08:50:35.130Z,2.80
2023-08-31T08:53:03.613Z,2.30
2023-08-31T08:55:30.151Z,2.65
2023-08-31T08:57:58.921Z,2.25
2023-08-31T09:00:25.960Z,2.38
2023-08-31T09:02:52.566Z,2.05
2023-08-31T09:05:19.623Z,2.40
2023-08-31T09:08:02.933Z,2.00
2023-08-31T09:10:37.732Z,1.88
2023-08-31T09:13:09.403Z,2.55
2023-08-31T09:15:49.623Z,1.95
2023-08-31T09:18:18.015Z,2.28
2023-08-31T09:20:46.521Z,1.90
2023-08-31T09:23:14.811Z,1.90
2023-08-31T09:25:46.256Z,2.20
2023-08-31T09:28:14.182Z,1.60
2023-08-31T09:30:43.576Z,1.60
2023-08-31T09:33:14.558Z,2.05
2023-08-31T09:35:44.310Z,1.63
2023-08-31T09:38:11.379Z,1.40
2023-08-31T09:40:39.091Z,1.80
2023-08-31T09:43:05.648Z,1.20
2023-08-31T09:48:04.892Z,1.48
2023-08-31T09:50:34.198Z,1.50
2023-08-31T09:53:05.752Z,1.02
2023-08-31T09:55:33.404Z,1.63
2023-08-31T09:58:14.448Z,1.30
2023-08-31T10:00:43.332Z,1.80
2023-08-31T10:03:11.017Z,2.10
2023-08-31T10:05:38.547Z,1.30
2023-08-31T10:08:05.380Z,1.60
2023-08-31T10:10:31.916Z,1.58
2023-08-31T10:13:00.566Z,1.58
2023-08-31T10:15:34.006Z,2.15
2023-08-31T10:18:01.887Z,1.75
2023-08-31T10:20:35.224Z,1.42
2023-08-31T10:23:06.441Z,1.75
2023-08-31T10:25:51.237Z,1.58
2023-08-31T10:28:21.695Z,2.20
2023-08-31T10:31:10.817Z,1.60
2023-08-31T10:33:47.843Z,2.40
2023-08-31T10:36:18.742Z,2.17
2023-08-31T10:41:34.747Z,2.40
2023-08-31T10:44:01.774Z,2.35
2023-08-31T10:46:36.589Z,3.80
2023-08-31T10:49:15.663Z,2.72
2023-08-31T10:51:44.542Z,2.97
2023-08-31T10:54:21.896Z,3.30
2023-08-31T10:57:04.712Z,3.80
2023-08-31T10:59:56.895Z,3.45
2023-08-31T11:02:35.288Z,3.00
2023-08-31T11:05:07.444Z,3.28
2023-08-31T11:07:37.461Z,2.78
2023-08-31T11:10:18.156Z,3.00
2023-08-31T11:12:49.641Z,3.38
2023-08-31T11:15:18.672Z,2.90
2023-08-31T11:17:47.381Z,3.35
2023-08-31T11:20:15.616Z,2.97
2023-08-31T11:22:43.593Z,2.53
2023-08-31T11:25:11.977Z,3.50
2023-08-31T11:27:38.618Z,2.67
2023-08-31T11:30:28.619Z,3.65
2023-08-31T11:32:56.002Z,3.60
2023-08-31T11:35:23.927Z,3.55
2023-08-31T11:37:52.698Z,3.63
2023-08-31T11:40:19.700Z,3.50
2023-08-31T11:42:46.722Z,3.13
2023-08-31T11:45:14.868Z,3.38
2023-08-31T11:47:45.213Z,4.05
2023-08-31T11:50:12.605Z,3.80
2023-08-31T11:52:39.672Z,3.47
2023-08-31T11:55:15.599Z,3.50
2023-08-31T11:57:52.258Z,3.45
2023-08-31T12:00:21.434Z,3.45
2023-08-31T12:02:57.380Z,3.58
2023-08-31T12:05:23.882Z,3.17
2023-08-31T12:07:52.270Z,2.88
2023-08-31T12:10:18.772Z,2.92
2023-08-31T12:12:45.238Z,2.50
2023-08-31T12:15:11.886Z,2.53
2023-08-31T12:17:40.430Z,2.60
2023-08-31T12:20:07.868Z,3.03
2023-08-31T12:22:34.455Z,2.70
2023-08-31T12:25:00.953Z,2.60
2023-08-31T12:27:27.440Z,2.20
2023-08-31T12:29:53.950Z,2.78
2023-08-31T12:32:20.443Z,2.63
2023-08-31T12:34:46.939Z,2.17
2023-08-31T12:37:13.405Z,2.58
2023-08-31T12:39:43.228Z,2.40
2023-08-31T12:42:21.074Z,1.70
2023-08-31T12:44:49.271Z,1.02
2023-08-31T12:47:15.700Z,1.33
2023-08-31T12:49:42.164Z,1.40
2023-08-31T12:52:08.660Z,1.17
2023-08-31T12:54:35.127Z,1.40
2023-08-31T12:57:01.597Z,1.35
2023-08-31T12:59:28.111Z,1.65
2023-08-31T13:01:54.613Z,1.23
2023-08-31T13:04:21.570Z,1.20
2023-08-31T13:06:48.335Z,1.30
2023-08-31T13:09:14.793Z,1.30
2023-08-31T13:11:41.946Z,1.50
2023-08-31T13:14:08.626Z,1.30
2023-08-31T13:16:38.065Z,1.30
2023-08-31T13:19:04.626Z,1.08
2023-08-31T13:21:31.096Z,1.35
2023-08-31T13:23:57.553Z,1.00
2023-08-31T13:26:24.011Z,1.40
2023-08-31T13:28:50.472Z,1.17
2023-08-31T13:31:17.023Z,1.20
2023-08-31T13:33:43.845Z,1.38
2023-08-31T13:36:10.605Z,1.10
2023-08-31T13:38:37.368Z,1.27
2023-08-31T13:41:04.594Z,1.33
2023-08-31T13:43:31.115Z,1.45
2023-08-31T13:45:57.654Z,1.25
2023-08-31T13:48:24.187Z,1.48
2023-08-31T13:50:50.716Z,1.30
2023-08-31T13:53:17.227Z,1.20
2023-08-31T13:55:43.803Z,1.17
2023-08-31T13:58:10.290Z,1.17
2023-08-31T14:00:37.358Z,1.17
2023-08-31T14:03:05.394Z,1.05
2023-08-31T14:05:32.878Z,0.90
2023-08-31T14:07:59.656Z,0.60
2023-08-31T14:10:26.317Z,0.50
2023-08-31T14:12:52.802Z,0.68
2023-08-31T14:15:19.266Z,0.40
2023-08-31T14:17:45.830Z,0.40
2023-08-31T14:20:12.738Z,0.47
2023-08-31T14:22:43.747Z,0.60
2023-08-31T14:25:12.011Z,0.52
2023-08-31T14:27:38.825Z,0.40
2023-08-31T14:30:07.119Z,0.43
2023-08-31T14:32:33.778Z,0.40
2023-08-31T14:35:00.309Z,0.60
2023-08-31T14:37:27.501Z,0.45
2023-08-31T14:39:54.076Z,0.40
2023-08-31T14:42:22.285Z,0.57
2023-08-31T14:44:50.190Z,0.50
2023-08-31T14:47:16.703Z,0.50
2023-08-31T14:49:43.204Z,0.70
2023-08-31T14:52:09.798Z,0.55
2023-08-31T14:54:36.254Z,0.73
2023-08-31T14:57:04.877Z,1.00
2023-08-31T14:59:31.360Z,0.85
2023-08-31T15:01:57.833Z,0.73
2023-08-31T15:04:24.330Z,0.82
2023-08-31T15:06:50.903Z,0.70
2023-08-31T15:09:17.398Z,0.70
2023-08-31T15:11:45.671Z,0.60
2023-08-31T15:14:12.700Z,0.95
2023-08-31T15:16:39.397Z,0.70
2023-08-31T15:19:06.170Z,0.60
2023-08-31T15:21:32.835Z,0.70
2023-08-31T15:23:59.342Z,0.70
2023-08-31T15:26:25.813Z,0.77
2023-08-31T15:28:52.909Z,0.80
2023-08-31T15:31:19.495Z,0.80
2023-08-31T15:33:46.066Z,0.80
2023-08-31T15:36:12.965Z,0.80
2023-08-31T15:38:39.487Z,0.70
2023-08-31T15:41:08.167Z,0.68
2023-08-31T15:43:38.359Z,0.57
2023-08-31T15:46:05.290Z,0.60
2023-08-31T15:48:31.936Z,0.60
2023-08-31T15:50:59.279Z,0.40
2023-08-31T15:53:26.818Z,0.60
2023-08-31T15:55:53.282Z,0.63
2023-08-31T15:58:19.747Z,0.95
2023-08-31T16:00:46.252Z,0.73
2023-08-31T16:03:12.905Z,0.90
2023-08-31T16:05:39.726Z,0.80
2023-08-31T16:08:06.563Z,0.60
2023-08-31T16:10:33.556Z,0.50
2023-08-31T16:13:00.402Z,0.52
2023-08-31T16:15:28.257Z,0.70
2023-08-31T16:17:57.543Z,0.50
2023-08-31T16:20:24.061Z,0.85
2023-08-31T16:22:50.503Z,1.05
2023-08-31T16:25:18.987Z,0.60
2023-08-31T16:27:46.561Z,0.90
2023-08-31T16:30:16.373Z,0.70
2023-08-31T16:32:43.459Z,0.60
2023-08-31T16:35:15.289Z,1.00
2023-08-31T16:37:43.305Z,0.82
2023-08-31T16:40:11.683Z,0.73
2023-08-31T16:42:42.344Z,0.88
2023-08-31T16:45:10.261Z,0.63
2023-08-31T16:47:37.609Z,0.90
2023-08-31T16:50:04.923Z,0.70
2023-08-31T16:52:32.061Z,1.13
2023-08-31T16:55:01.431Z,0.65
2023-08-31T16:57:27.960Z,0.88
2023-08-31T16:59:54.452Z,1.05
2023-08-31T17:02:20.978Z,0.80
2023-08-31T17:04:47.956Z,0.88
2023-08-31T17:07:14.668Z,0.82
2023-08-31T17:09:41.621Z,0.80
2023-08-31T17:12:08.171Z,1.05
2023-08-31T17:14:34.657Z,0.73
2023-08-31T17:17:02.687Z,0.80
2023-08-31T17:19:29.234Z,0.90
2023-08-31T17:21:55.742Z,0.73
2023-08-31T17:24:22.259Z,0.70
2023-08-31T17:26:48.790Z,0.68
2023-08-31T17:29:15.303Z,0.60
2023-08-31T17:31:43.202Z,0.90
2023-08-31T17:34:13.140Z,0.80
2023-08-31T17:36:39.675Z,0.90
2023-08-31T17:39:06.146Z,0.85
2023-08-31T17:41:32.615Z,1.00
2023-08-31T17:43:59.058Z,1.00
2023-08-31T17:46:25.795Z,1.27
2023-08-31T17:48:52.449Z,1.02
2023-08-31T17:51:19.027Z,0.85
2023-08-31T17:53:46.230Z,0.75
2023-08-31T17:56:12.731Z,1.10
2023-08-31T17:58:39.214Z,0.85
2023-08-31T18:01:06.164Z,1.10
2023-08-31T18:03:33.256Z,1.10
2023-08-31T18:05:59.831Z,1.10
2023-08-31T18:08:28.116Z,0.85
2023-08-31T18:10:55.410Z,1.00
2023-08-31T18:13:22.225Z,1.05
2023-08-31T18:15:51.146Z,1.02
2023-08-31T18:18:18.478Z,0.93
2023-08-31T18:20:45.334Z,1.05
2023-08-31T18:23:11.870Z,1.00
2023-08-31T18:25:38.341Z,0.90
2023-08-31T18:28:05.163Z,0.70
2023-08-31T18:30:31.645Z,0.90
2023-08-31T18:32:59.834Z,0.95
2023-08-31T18:35:26.449Z,0.90
2023-08-31T18:37:52.899Z,0.80
2023-08-31T18:40:21.145Z,1.10
2023-08-31T18:42:47.883Z,1.35
2023-08-31T18:45:18.859Z,1.02
2023-08-31T18:47:46.550Z,0.75
2023-08-31T18:50:21.138Z,0.90
2023-08-31T18:52:48.741Z,1.00
2023-08-31T18:55:16.774Z,1.20
2023-08-31T18:57:46.734Z,1.05
2023-08-31T19:00:15.253Z,1.08
2023-08-31T19:02:43.864Z,1.02
2023-08-31T19:05:12.021Z,1.02
2023-08-31T19:07:39.114Z,1.00
2023-08-31T19:10:08.989Z,0.85
2023-08-31T19:12:36.683Z,0.80
2023-08-31T19:15:04.407Z,0.98
2023-08-31T19:17:31.008Z,0.93
2023-08-31T19:19:57.498Z,1.00
2023-08-31T19:22:24.054Z,1.20
2023-08-31T19:24:51.792Z,1.10
2023-08-31T19:27:18.665Z,1.13
2023-08-31T19:29:45.734Z,1.25
2023-08-31T19:32:12.250Z,1.20
2023-08-31T19:34:39.170Z,1.70
2023-08-31T19:37:05.669Z,1.40
2023-08-31T19:39:35.058Z,1.38
2023-08-31T19:42:01.530Z,1.52
2023-08-31T19:44:27.976Z,1.00
2023-08-31T19:46:56.083Z,1.33
2023-08-31T19:49:25.289Z,1.17
2023-08-31T19:51:51.769Z,1.75
2023-08-31T19:54:18.228Z,1.45
2023-08-31T19:56:44.694Z,0.93
2023-08-31T19:59:11.134Z,1.33
2023-08-31T20:01:40.236Z,1.33
2023-08-31T20:04:07.035Z,1.20
2023-08-31T20:06:33.616Z,1.05
2023-08-31T20:09:00.077Z,1.20
2023-08-31T20:11:26.525Z,1.65
2023-08-31T20:13:56.900Z,1.30
2023-08-31T20:16:23.537Z,1.00
2023-08-31T20:18:50.526Z,1.35
2023-08-31T20:21:17.291Z,1.13
2023-08-31T20:23:44.197Z,1.27
2023-08-31T20:26:10.995Z,1.52
2023-08-31T20:28:37.480Z,1.35
2023-08-31T20:31:04.593Z,1.20
2023-08-31T20:33:31.122Z,1.40
2023-08-31T20:36:09.129Z,1.23
2023-08-31T20:38:36.637Z,1.13
2023-08-31T20:41:04.633Z,1.25
2023-08-31T20:43:32.182Z,1.30
2023-08-31T20:46:09.293Z,1.15
2023-08-31T20:48:36.562Z,1.33
2023-08-31T20:51:08.058Z,1.50
2023-08-31T20:53:35.239Z,1.17
2023-08-31T20:56:09.247Z,1.38
2023-08-31T20:58:36.504Z,1.10
2023-08-31T21:01:11.401Z,1.20
2023-08-31T21:03:40.267Z,1.65
2023-08-31T21:06:08.473Z,1.48
2023-08-31T21:08:35.810Z,1.35
2023-08-31T21:11:02.624Z,1.50
2023-08-31T21:13:29.716Z,1.20
2023-08-31T21:15:57.099Z,1.10
2023-08-31T21:18:24.085Z,1.30
2023-08-31T21:20:53.425Z,1.25
2023-08-31T21:23:19.899Z,1.20
2023-08-31T21:25:46.388Z,1.38
2023-08-31T21:28:13.176Z,1.00
2023-08-31T21:30:42.294Z,1.08
2023-08-31T21:33:09.140Z,1.40
2023-08-31T21:35:45.118Z,1.30
2023-08-31T21:38:12.197Z,1.00
2023-08-31T21:40:40.793Z,1.25
2023-08-31T21:43:09.071Z,1.10
2023-08-31T21:45:39.408Z,1.20
2023-08-31T21:48:07.144Z,1.00
2023-08-31T21:50:35.589Z,1.10
2023-08-31T21:53:03.899Z,0.90
2023-08-31T21:55:30.587Z,1.20
2023-08-31T21:57:57.069Z,1.25
2023-08-31T22:00:23.915Z,0.93
2023-08-31T22:02:52.702Z,1.10
2023-08-31T22:05:27.182Z,1.08
2023-08-31T22:07:54.419Z,1.30
2023-08-31T22:10:21.327Z,1.20
2023-08-31T22:12:47.782Z,1.27
2023-08-31T22:15:19.354Z,1.10
2023-08-31T22:17:47.129Z,1.08
2023-08-31T22:20:15.328Z,0.90
2023-08-31T22:22:43.220Z,1.20
2023-08-31T22:25:11.268Z,1.30
2023-08-31T22:27:38.197Z,1.65
2023-08-31T22:30:05.166Z,1.35
2023-08-31T22:32:31.987Z,1.42
2023-08-31T22:34:58.786Z,1.10
2023-08-31T22:37:25.746Z,1.00
2023-08-31T22:39:52.636Z,1.30
2023-08-31T22:42:19.490Z,1.20
2023-08-31T22:44:46.263Z,1.25
2023-08-31T22:47:12.712Z,1.17
2023-08-31T22:49:39.164Z,1.00
2023-08-31T22:52:11.992Z,0.88
2023-08-31T22:54:41.701Z,1.20
2023-08-31T22:57:09.478Z,1.10
2023-08-31T22:59:36.016Z,1.35
2023-08-31T23:02:04.464Z,1.38
2023-08-31T23:04:30.959Z,1.00
2023-08-31T23:06:57.410Z,1.23
2023-08-31T23:09:24.469Z,1.35
2023-08-31T23:11:51.468Z,1.30
2023-08-31T23:14:18.058Z,1.10
2023-08-31T23:16:44.683Z,1.25
2023-08-31T23:19:11.123Z,1.20
2023-08-31T23:21:43.072Z,0.93
2023-08-31T23:24:10.244Z,1.20
2023-08-31T23:26:36.718Z,1.40
2023-08-31T23:29:03.187Z,1.33
2023-08-31T23:31:29.794Z,1.17
2023-08-31T23:33:56.676Z,1.30
2023-08-31T23:36:23.164Z,1.20
2023-08-31T23:38:51.577Z,1.25
2023-08-31T23:41:20.219Z,1.30
2023-08-31T23:43:47.317Z,0.90
2023-08-31T23:46:13.986Z,1.52
2023-08-31T23:48:40.711Z,1.08
2023-08-31T23:51:07.142Z,1.40
2023-08-31T23:53:34.750Z,1.00
2023-08-31T23:56:07.670Z,1.52
2023-08-31T23:58:34.276Z,1.50
